createdAt,value
2022-10-24T00:02:17.563Z,22.50
2022-10-24T00:04:50.171Z,22.50
2022-10-24T00:07:22.020Z,22.60
2022-10-24T00:09:54.525Z,22.50
2022-10-24T00:12:26.666Z,22.60
2022-10-24T00:14:59.510Z,22.60
2022-10-24T00:17:31.609Z,22.60
2022-10-24T00:20:06.508Z,22.60
2022-10-24T00:22:38.676Z,22.50
2022-10-24T00:25:11.304Z,22.70
2022-10-24T00:30:16.299Z,22.50
2022-10-24T00:32:48.177Z,22.60
2022-10-24T00:35:20.988Z,22.60
2022-10-24T00:37:52.860Z,22.50
2022-10-24T00:40:25.382Z,22.10
2022-10-24T00:42:57.274Z,21.40
2022-10-24T00:45:48.861Z,20.90
2022-10-24T00:48:31.286Z,20.70
2022-10-24T00:51:18.651Z,20.50
2022-10-24T00:56:34.890Z,20.30
2022-10-24T00:59:11.002Z,20.30
2022-10-24T01:01:45.287Z,20.20
2022-10-24T01:04:17.853Z,20.10
2022-10-24T01:06:58.503Z,20.10
2022-10-24T01:09:49.641Z,19.90
2022-10-24T01:12:52.277Z,20.10
2022-10-24T01:15:49.192Z,20.00
2022-10-24T01:18:36.425Z,20.10
2022-10-24T01:21:26.075Z,20.10
2022-10-24T01:24:29.216Z,19.90
2022-10-24T01:27:25.276Z,19.60
2022-10-24T01:32:44.993Z,19.10
2022-10-24T01:35:59.911Z,19.80
2022-10-24T01:38:45.563Z,19.70
2022-10-24T01:41:24.739Z,20.20
2022-10-24T01:44:16.713Z,20.10
2022-10-24T01:47:06.168Z,19.90
2022-10-24T01:49:41.230Z,19.70
2022-10-24T01:52:16.648Z,19.90
2022-10-24T01:57:32.080Z,20.30
2022-10-24T02:00:07.456Z,20.40
2022-10-24T02:02:47.587Z,20.60
2022-10-24T02:05:27.735Z,20.40
2022-10-24T02:08:06.726Z,20.10
2022-10-24T02:10:47.018Z,19.90
2022-10-24T02:13:50.681Z,20.10
2022-10-24T02:16:22.667Z,20.10
2022-10-24T02:18:56.958Z,20.40
2022-10-24T02:21:38.522Z,20.70
2022-10-24T02:24:33.719Z,21.90
2022-10-24T02:27:17.182Z,20.10
2022-10-24T02:32:39.207Z,20.90
2022-10-24T02:35:15.286Z,20.70
2022-10-24T02:37:53.177Z,20.60
2022-10-24T02:40:27.283Z,20.90
2022-10-24T02:43:01.329Z,21.10
2022-10-24T02:45:35.820Z,21.00
2022-10-24T02:48:12.814Z,21.40
2022-10-24T02:50:46.238Z,21.40
2022-10-24T02:53:22.021Z,21.70
2022-10-24T02:55:55.256Z,21.20
2022-10-24T02:58:27.596Z,21.30
2022-10-24T03:00:59.587Z,21.30
2022-10-24T03:06:05.117Z,21.20
2022-10-24T03:08:37.911Z,21.20
2022-10-24T03:11:10.249Z,21.40
2022-10-24T03:13:42.552Z,21.20
2022-10-24T03:16:14.840Z,21.20
2022-10-24T03:18:46.798Z,21.20
2022-10-24T03:21:19.565Z,21.20
2022-10-24T03:23:51.519Z,21.20
2022-10-24T03:26:24.626Z,21.20
2022-10-24T03:28:56.545Z,21.00
2022-10-24T03:31:31.097Z,20.10
2022-10-24T03:36:54.261Z,19.00
2022-10-24T03:39:26.658Z,18.90
2022-10-24T03:41:59.401Z,18.60
2022-10-24T03:44:32.002Z,18.50
2022-10-24T03:47:03.943Z,18.40
2022-10-24T03:49:36.499Z,18.60
2022-10-24T03:52:08.816Z,18.70
2022-10-24T03:54:41.362Z,18.70
2022-10-24T03:57:14.236Z,18.60
2022-10-24T03:59:46.944Z,18.40
2022-10-24T04:02:18.886Z,18.30
2022-10-24T04:04:51.574Z,18.30
2022-10-24T04:07:23.906Z,18.10
2022-10-24T04:09:57.511Z,18.10
2022-10-24T04:12:29.382Z,18.40
2022-10-24T04:15:04.714Z,18.30
2022-10-24T04:17:37.057Z,18.30
2022-10-24T04:20:10.202Z,18.40
2022-10-24T04:22:42.194Z,18.20
2022-10-24T04:25:16.053Z,18.20
2022-10-24T04:27:48.408Z,18.50
2022-10-24T04:30:20.976Z,18.70
2022-10-24T04:32:52.900Z,18.90
2022-10-24T04:35:26.573Z,18.80
2022-10-24T04:37:58.869Z,18.50
2022-10-24T04:40:30.774Z,18.90
2022-10-24T04:43:03.289Z,18.50
2022-10-24T04:45:35.246Z,17.70
2022-10-24T04:48:07.790Z,17.60
2022-10-24T04:50:41.979Z,17.50
2022-10-24T04:56:10.749Z,14.30
2022-10-24T05:01:15.788Z,18.50
2022-10-24T05:03:48.389Z,18.50
2022-10-24T05:06:20.323Z,18.40
2022-10-24T05:08:52.869Z,18.30
2022-10-24T05:11:24.825Z,18.10
2022-10-24T05:16:29.749Z,17.00
2022-10-24T05:19:02.267Z,16.80
2022-10-24T05:21:34.234Z,16.90
2022-10-24T05:24:06.939Z,16.90
2022-10-24T05:26:38.858Z,17.00
2022-10-24T05:29:11.386Z,17.10
2022-10-24T05:36:48.494Z,17.00
2022-10-24T05:39:21.071Z,16.90
2022-10-24T05:41:55.289Z,17.30
2022-10-24T05:44:28.173Z,17.10
2022-10-24T05:47:00.274Z,17.00
2022-10-24T05:49:32.995Z,17.00
2022-10-24T05:52:05.598Z,16.80
2022-10-24T05:54:48.716Z,16.50
2022-10-24T05:57:27.778Z,16.40
2022-10-24T06:02:33.336Z,16.10
2022-10-24T06:05:06.429Z,16.10
2022-10-24T06:07:42.446Z,16.00
2022-10-24T06:10:14.854Z,15.90
2022-10-24T06:12:47.820Z,15.90
2022-10-24T06:20:25.315Z,15.90
2022-10-24T06:22:57.909Z,15.80
2022-10-24T06:25:29.796Z,15.80
2022-10-24T06:30:36.246Z,15.80
2022-10-24T06:35:41.091Z,15.70
2022-10-24T06:38:13.802Z,16.20
2022-10-24T06:43:19.947Z,16.60
2022-10-24T06:45:51.837Z,16.10
2022-10-24T06:50:56.613Z,16.10
2022-10-24T06:53:29.312Z,16.10
2022-10-24T06:56:06.855Z,16.30
2022-10-24T06:58:39.068Z,16.50
2022-10-24T07:01:19.598Z,16.70
2022-10-24T07:03:51.911Z,16.70
2022-10-24T07:06:28.185Z,16.90
2022-10-24T07:09:02.101Z,17.00
2022-10-24T07:11:34.839Z,16.80
2022-10-24T07:14:09.164Z,16.60
2022-10-24T07:16:42.035Z,16.40
2022-10-24T07:19:14.142Z,16.50
2022-10-24T07:21:46.687Z,16.50
2022-10-24T07:29:24.959Z,16.60
2022-10-24T07:31:59.776Z,16.50
2022-10-24T07:37:05.132Z,16.30
2022-10-24T07:42:12.946Z,16.00
2022-10-24T07:44:45.653Z,15.90
2022-10-24T07:47:18.210Z,15.90
2022-10-24T07:49:50.167Z,16.00
2022-10-24T07:57:28.163Z,15.90
2022-10-24T08:00:00.119Z,15.80
2022-10-24T08:02:33.344Z,15.80
2022-10-24T08:05:05.925Z,15.80
2022-10-24T08:07:39.023Z,15.80
2022-10-24T08:10:13.245Z,15.90
2022-10-24T08:12:46.073Z,15.80
2022-10-24T08:15:18.309Z,15.90
2022-10-24T08:20:26.120Z,15.80
2022-10-24T08:22:58.323Z,15.90
2022-10-24T08:25:30.227Z,15.80
2022-10-24T08:28:05.319Z,15.90
2022-10-24T08:30:40.132Z,16.00
2022-10-24T08:33:15.866Z,16.00
2022-10-24T08:35:51.115Z,16.00
2022-10-24T08:38:23.136Z,16.00
2022-10-24T08:46:39.010Z,15.90
2022-10-24T08:49:46.450Z,16.10
2022-10-24T08:52:33.502Z,15.90
2022-10-24T08:55:49.318Z,16.00
2022-10-24T09:01:05.841Z,16.50
2022-10-24T09:03:55.727Z,16.20
2022-10-24T09:06:32.393Z,16.10
2022-10-24T09:09:29.883Z,16.10
2022-10-24T09:12:18.555Z,16.00
2022-10-24T09:14:58.103Z,16.00
2022-10-24T09:17:37.376Z,16.10
2022-10-24T09:20:29.930Z,16.30
2022-10-24T09:23:06.122Z,16.50
2022-10-24T09:25:41.620Z,16.70
2022-10-24T09:28:14.263Z,16.80
2022-10-24T09:30:46.683Z,16.90
2022-10-24T09:33:29.189Z,17.10
2022-10-24T09:36:04.844Z,17.10
2022-10-24T09:38:39.405Z,17.40
2022-10-24T09:41:26.044Z,17.50
2022-10-24T09:44:00.696Z,17.60
2022-10-24T09:46:45.391Z,17.70
2022-10-24T09:49:22.674Z,17.70
2022-10-24T09:52:19.660Z,14.20
2022-10-24T09:55:20.704Z,17.30
2022-10-24T09:57:59.766Z,17.40
2022-10-24T10:00:36.668Z,17.20
2022-10-24T10:03:23.921Z,17.20
2022-10-24T10:05:59.970Z,17.20
2022-10-24T10:08:35.484Z,17.10
2022-10-24T10:11:11.648Z,17.10
2022-10-24T10:13:50.847Z,17.20
2022-10-24T10:16:34.081Z,17.20
2022-10-24T10:19:17.321Z,17.20
2022-10-24T10:22:13.988Z,17.30
2022-10-24T10:24:46.250Z,17.30
2022-10-24T10:27:40.989Z,17.40
2022-10-24T10:33:46.096Z,17.50
2022-10-24T10:36:32.229Z,17.30
2022-10-24T10:39:24.290Z,16.90
2022-10-24T10:42:21.046Z,16.90
2022-10-24T10:45:33.550Z,16.70
2022-10-24T10:48:43.798Z,16.60
2022-10-24T10:51:22.878Z,16.60
2022-10-24T10:54:06.673Z,16.60
2022-10-24T10:57:04.280Z,16.60
2022-10-24T10:59:58.840Z,16.70
2022-10-24T11:03:01.925Z,16.70
2022-10-24T11:06:28.473Z,16.80
2022-10-24T11:11:42.731Z,16.90
2022-10-24T11:14:33.170Z,17.00
2022-10-24T11:17:24.197Z,17.00
2022-10-24T11:20:20.231Z,17.10
2022-10-24T11:23:01.437Z,17.20
2022-10-24T11:25:47.049Z,17.10
2022-10-24T11:28:44.435Z,17.30
2022-10-24T11:31:24.929Z,17.20
2022-10-24T11:34:11.261Z,17.40
2022-10-24T11:37:06.603Z,17.40
2022-10-24T11:39:48.997Z,17.30
2022-10-24T11:42:34.022Z,17.50
2022-10-24T11:45:16.634Z,17.60
2022-10-24T11:48:03.175Z,17.70
2022-10-24T11:51:07.222Z,17.90
2022-10-24T11:53:48.085Z,18.20
2022-10-24T11:56:40.595Z,18.50
2022-10-24T11:59:24.695Z,18.20
2022-10-24T12:02:24.678Z,18.30
2022-10-24T12:05:20.218Z,18.50
2022-10-24T12:08:13.469Z,18.40
2022-10-24T12:11:12.889Z,18.40
2022-10-24T12:14:08.810Z,18.30
2022-10-24T12:17:10.618Z,18.40
2022-10-24T12:19:45.334Z,18.50
2022-10-24T12:25:45.749Z,18.60
2022-10-24T12:28:26.255Z,18.60
2022-10-24T12:31:14.865Z,18.70
2022-10-24T12:34:17.116Z,18.60
2022-10-24T12:37:12.227Z,18.80
2022-10-24T12:39:49.098Z,19.20
2022-10-24T12:42:23.864Z,19.20
2022-10-24T12:45:02.647Z,19.20
2022-10-24T12:47:52.555Z,19.20
2022-10-24T12:53:17.483Z,19.20
2022-10-24T12:55:50.149Z,19.30
2022-10-24T12:58:29.757Z,19.50
2022-10-24T13:01:12.447Z,19.50
2022-10-24T13:04:17.047Z,19.50
2022-10-24T13:07:21.467Z,19.50
2022-10-24T13:10:33.878Z,19.50
2022-10-24T13:16:12.241Z,20.10
2022-10-24T13:19:18.565Z,20.10
2022-10-24T13:21:59.487Z,20.30
2022-10-24T13:24:36.250Z,20.30
2022-10-24T13:27:13.171Z,20.30
2022-10-24T13:29:45.964Z,20.30
2022-10-24T13:32:20.068Z,20.40
2022-10-24T13:35:00.092Z,20.50
2022-10-24T13:37:37.245Z,20.70
2022-10-24T13:42:58.478Z,20.40
2022-10-24T13:45:48.859Z,20.30
2022-10-24T13:48:29.201Z,20.10
2022-10-24T13:51:42.662Z,20.00
2022-10-24T13:56:50.087Z,19.90
2022-10-24T13:59:37.833Z,19.80
2022-10-24T14:02:26.092Z,19.80
2022-10-24T14:05:02.367Z,19.80
2022-10-24T14:10:14.525Z,19.70
2022-10-24T14:15:27.987Z,19.90
2022-10-24T14:18:13.437Z,19.90
2022-10-24T14:20:58.791Z,19.60
2022-10-24T14:23:41.730Z,19.70
2022-10-24T14:26:21.469Z,19.70
2022-10-24T14:29:00.151Z,19.70
2022-10-24T14:31:35.371Z,19.80
2022-10-24T14:36:50.673Z,19.70
2022-10-24T14:39:26.151Z,19.80
2022-10-24T14:42:02.009Z,19.70
2022-10-24T14:47:28.707Z,19.70
2022-10-24T14:50:43.560Z,19.60
2022-10-24T14:53:27.852Z,19.50
2022-10-24T14:56:02.457Z,19.50
2022-10-24T14:58:37.675Z,19.60
2022-10-24T15:01:19.281Z,19.70
2022-10-24T15:04:03.591Z,19.70
2022-10-24T15:06:44.809Z,19.70
2022-10-24T15:09:18.485Z,19.60
2022-10-24T15:12:02.595Z,19.70
2022-10-24T15:14:47.971Z,19.70
2022-10-24T15:17:32.764Z,19.80
2022-10-24T15:20:06.622Z,19.70
2022-10-24T15:22:38.624Z,19.70
2022-10-24T15:25:23.105Z,19.70
2022-10-24T15:27:59.310Z,19.70
2022-10-24T15:30:41.608Z,19.60
2022-10-24T15:35:49.257Z,19.40
2022-10-24T15:38:21.630Z,19.40
2022-10-24T15:40:53.723Z,19.20
2022-10-24T15:43:29.483Z,19.20
2022-10-24T15:48:33.988Z,19.10
2022-10-24T15:51:07.363Z,18.90
2022-10-24T15:56:13.156Z,18.50
2022-10-24T16:02:01.315Z,18.40
2022-10-24T16:04:33.472Z,18.40
2022-10-24T16:07:06.393Z,18.50
2022-10-24T16:09:38.814Z,18.40
2022-10-24T16:12:13.016Z,18.20
2022-10-24T16:14:44.975Z,18.00
2022-10-24T16:19:52.651Z,18.00
2022-10-24T16:22:27.686Z,17.90
2022-10-24T16:24:59.596Z,17.90
2022-10-24T16:32:38.547Z,17.70
2022-10-24T16:35:18.206Z,17.60
2022-10-24T16:37:55.531Z,17.60
2022-10-24T16:40:28.723Z,17.70
2022-10-24T16:43:02.394Z,18.20
2022-10-24T16:45:35.163Z,18.50
2022-10-24T16:48:07.534Z,18.70
2022-10-24T16:50:46.544Z,18.90
2022-10-24T16:53:19.054Z,18.90
2022-10-24T16:55:54.845Z,19.00
2022-10-24T16:58:27.606Z,18.90
2022-10-24T17:01:08.202Z,19.00
2022-10-24T17:03:41.056Z,18.90
2022-10-24T17:06:14.851Z,18.90
2022-10-24T17:08:46.735Z,18.80
2022-10-24T17:11:44.306Z,18.80
2022-10-24T17:19:19.871Z,18.80
2022-10-24T17:21:52.902Z,18.80
2022-10-24T17:24:26.138Z,18.80
2022-10-24T17:29:33.862Z,18.60
2022-10-24T17:32:07.921Z,18.50
2022-10-24T17:34:42.284Z,18.50
2022-10-24T17:37:43.585Z,18.50
2022-10-24T17:40:22.122Z,18.40
2022-10-24T17:42:55.056Z,18.30
2022-10-24T17:45:27.225Z,18.30
2022-10-24T17:47:59.931Z,18.20
2022-10-24T17:50:32.253Z,18.20
2022-10-24T17:53:04.683Z,18.30
2022-10-24T17:55:51.950Z,18.30
2022-10-24T17:58:26.633Z,18.30
2022-10-24T18:01:00.006Z,18.30
2022-10-24T18:06:07.974Z,18.20
2022-10-24T18:11:14.214Z,18.10
2022-10-24T18:16:19.921Z,18.00
2022-10-24T18:18:52.740Z,18.20
2022-10-24T18:21:27.096Z,18.10
2022-10-24T18:23:59.791Z,18.10
2022-10-24T18:26:32.097Z,18.00
2022-10-24T18:29:04.665Z,18.10
2022-10-24T18:31:37.535Z,18.10
2022-10-24T18:36:42.062Z,18.00
2022-10-24T18:41:54.392Z,18.20
2022-10-24T18:44:34.028Z,18.20
2022-10-24T18:49:59.649Z,18.20
2022-10-24T18:52:49.001Z,18.20
2022-10-24T18:55:25.343Z,18.30
2022-10-24T18:57:57.788Z,18.30
2022-10-24T19:00:33.323Z,18.20
2022-10-24T19:03:31.041Z,18.20
2022-10-24T19:06:25.096Z,18.20
2022-10-24T19:08:58.006Z,18.30
2022-10-24T19:11:29.985Z,18.40
2022-10-24T19:14:02.882Z,18.30
2022-10-24T19:16:35.446Z,18.30
2022-10-24T19:19:08.989Z,18.20
2022-10-24T19:21:42.251Z,18.30
2022-10-24T19:24:16.292Z,18.20
2022-10-24T19:26:50.224Z,17.70
2022-10-24T19:29:22.190Z,17.50
2022-10-24T19:31:54.917Z,17.00
2022-10-24T19:34:29.656Z,16.60
2022-10-24T19:37:01.957Z,16.40
2022-10-24T19:39:34.339Z,16.20
2022-10-24T19:42:07.952Z,16.20
2022-10-24T19:44:42.681Z,15.90
2022-10-24T19:47:17.797Z,15.90
2022-10-24T19:49:50.113Z,15.60
2022-10-24T19:54:59.967Z,15.30
2022-10-24T19:57:31.943Z,15.10
2022-10-24T20:00:05.359Z,15.40
2022-10-24T20:02:43.931Z,15.20
2022-10-24T20:05:16.929Z,15.00
2022-10-24T20:07:49.321Z,14.80
2022-10-24T20:12:54.926Z,14.60
2022-10-24T20:18:00.790Z,14.50
2022-10-24T20:20:35.166Z,14.50
2022-10-24T20:23:07.760Z,14.50
2022-10-24T20:25:39.643Z,14.40
2022-10-24T20:28:12.234Z,14.30
2022-10-24T20:30:46.881Z,14.20
2022-10-24T20:35:51.771Z,14.10
2022-10-24T20:41:02.349Z,14.00
2022-10-24T20:43:34.974Z,14.10
2022-10-24T20:46:07.305Z,14.10
2022-10-24T20:48:39.898Z,14.00
2022-10-24T20:51:18.180Z,14.00
2022-10-24T20:53:50.089Z,13.90
2022-10-24T20:56:26.217Z,13.90
2022-10-24T20:58:58.177Z,13.90
2022-10-24T21:01:30.981Z,13.90
2022-10-24T21:06:35.987Z,14.00
2022-10-24T21:09:08.737Z,14.10
2022-10-24T21:14:14.952Z,14.00
2022-10-24T21:16:48.232Z,14.00
2022-10-24T21:19:20.160Z,14.00
2022-10-24T21:25:19.233Z,14.00
2022-10-24T21:27:51.801Z,14.00
2022-10-24T21:30:23.732Z,14.00
2022-10-24T21:35:28.535Z,14.00
2022-10-24T21:38:01.082Z,13.90
2022-10-24T21:40:32.981Z,13.90
2022-10-24T21:45:37.880Z,13.90
2022-10-24T21:48:10.439Z,13.90
2022-10-24T21:50:42.321Z,13.80
2022-10-24T21:53:14.882Z,13.80
2022-10-24T21:55:46.745Z,13.80
2022-10-24T21:58:19.334Z,13.70
2022-10-24T22:00:51.267Z,13.70
2022-10-24T22:03:24.075Z,13.70
2022-10-24T22:05:57.143Z,13.80
2022-10-24T22:08:29.772Z,13.70
2022-10-24T22:11:06.004Z,13.70
2022-10-24T22:13:39.483Z,13.80
2022-10-24T22:16:13.509Z,13.80
2022-10-24T22:18:46.562Z,13.80
2022-10-24T22:21:33.674Z,13.70
2022-10-24T22:24:16.132Z,13.70
2022-10-24T22:26:49.453Z,13.60
2022-10-24T22:29:23.904Z,13.60
2022-10-24T22:31:56.186Z,13.60
2022-10-24T22:37:29.768Z,13.60
2022-10-24T22:40:02.080Z,13.50
2022-10-24T22:42:34.408Z,13.50
2022-10-24T22:45:07.341Z,13.40
2022-10-24T22:48:11.691Z,13.40
2022-10-24T22:50:51.651Z,13.30
2022-10-24T22:53:30.361Z,13.30
2022-10-24T22:56:27.727Z,13.20
2022-10-24T22:59:01.675Z,13.30
2022-10-24T23:01:58.104Z,13.20
2022-10-24T23:04:30.591Z,13.30
2022-10-24T23:07:58.847Z,13.40
2022-10-24T23:10:31.127Z,13.70
2022-10-24T23:18:11.089Z,13.50
2022-10-24T23:20:57.897Z,13.40
2022-10-24T23:23:30.649Z,13.40
2022-10-24T23:26:23.564Z,13.20
2022-10-24T23:29:31.225Z,13.00
2022-10-24T23:32:04.753Z,12.90
2022-10-24T23:34:37.698Z,13.10
2022-10-24T23:37:33.926Z,13.10
2022-10-24T23:40:17.641Z,13.20
2022-10-24T23:42:51.719Z,13.20
2022-10-24T23:45:28.401Z,13.30
2022-10-24T23:48:47.563Z,13.40
2022-10-24T23:51:35.113Z,13.20
2022-10-24T23:54:12.552Z,13.20
2022-10-24T23:56:44.752Z,13.10
2022-10-24T23:59:17.344Z,13.10
